createdAt,value
2023-03-05T00:00:09.218Z,95708
2023-03-05T00:01:17.879Z,95717
2023-03-05T00:02:27.625Z,95712
2023-03-05T00:03:36.514Z,95716
2023-03-05T00:04:45.073Z,95715
2023-03-05T00:05:53.768Z,95713
2023-03-05T00:07:02.460Z,95718
2023-03-05T00:08:12.116Z,95717
2023-03-05T00:09:20.851Z,95717
2023-03-05T00:10:28.505Z,95722
2023-03-05T00:11:38.228Z,95719
2023-03-05T00:12:47.971Z,95721
2023-03-05T00:13:57.645Z,95724
2023-03-05T00:15:06.322Z,95721
2023-03-05T00:16:16.235Z,95717
2023-03-05T00:17:25.828Z,95719
2023-03-05T00:18:34.623Z,95707
2023-03-05T00:19:43.320Z,95707
2023-03-05T00:20:53.050Z,95710
2023-03-05T00:22:00.797Z,95709
2023-03-05T00:23:10.488Z,95709
2023-03-05T00:24:19.188Z,95707
2023-03-05T00:25:28.888Z,95708
2023-03-05T00:26:38.589Z,95702
2023-03-05T00:27:47.245Z,95702
2023-03-05T00:28:57.011Z,95703
2023-03-05T00:30:05.677Z,95701
2023-03-05T00:31:13.417Z,95703
2023-03-05T00:32:22.077Z,95700
2023-03-05T00:33:30.707Z,95696
2023-03-05T00:34:40.403Z,95691
2023-03-05T00:35:50.164Z,95694
2023-03-05T00:36:57.786Z,95698
2023-03-05T00:38:07.480Z,95694
2023-03-05T00:39:17.148Z,95692
2023-03-05T00:40:25.851Z,95693
2023-03-05T00:41:34.544Z,95694
2023-03-05T00:42:44.191Z,95693
2023-03-05T00:43:53.864Z,95690
2023-03-05T00:45:03.640Z,95687
2023-03-05T00:46:13.468Z,95685
2023-03-05T00:47:23.109Z,95682
2023-03-05T00:48:31.879Z,95686
2023-03-05T00:49:41.586Z,95683
2023-03-05T00:50:51.374Z,95677
2023-03-05T00:51:59.083Z,95677
2023-03-05T00:53:08.810Z,95674
2023-03-05T00:54:17.586Z,95675
2023-03-05T00:55:27.290Z,95673
2023-03-05T00:56:37.125Z,95672
2023-03-05T00:57:45.775Z,95669
2023-03-05T00:58:54.455Z,95670
2023-03-05T01:00:04.180Z,95673
2023-03-05T01:01:12.889Z,95669
2023-03-05T01:02:21.601Z,95670
2023-03-05T01:03:30.280Z,95675
2023-03-05T01:04:38.999Z,95668
2023-03-05T01:05:48.764Z,95663
2023-03-05T01:06:57.450Z,95666
2023-03-05T01:08:06.129Z,95664
2023-03-05T01:09:15.814Z,95670
2023-03-05T01:10:23.498Z,95665
2023-03-05T01:11:33.188Z,95662
2023-03-05T01:12:41.852Z,95667
2023-03-05T01:13:50.518Z,95666
2023-03-05T01:15:00.153Z,95668
2023-03-05T01:16:09.934Z,95656
2023-03-05T01:17:18.570Z,95658
2023-03-05T01:18:28.252Z,95655
2023-03-05T01:19:37.949Z,95653
2023-03-05T01:20:46.602Z,95659
2023-03-05T01:21:55.300Z,95660
2023-03-05T01:23:04.000Z,95658
2023-03-05T01:24:13.697Z,95656
2023-03-05T01:25:21.372Z,95656
2023-03-05T01:26:31.142Z,95659
2023-03-05T01:27:40.888Z,95650
2023-03-05T01:28:50.563Z,95650
2023-03-05T01:29:59.265Z,95647
2023-03-05T01:31:07.994Z,95643
2023-03-05T01:32:16.821Z,95644
2023-03-05T01:33:26.468Z,95645
2023-03-05T01:34:36.121Z,95641
2023-03-05T01:35:45.835Z,95645
2023-03-05T01:36:55.661Z,95638
2023-03-05T01:38:04.497Z,95640
2023-03-05T01:39:13.145Z,95636
2023-03-05T01:40:22.830Z,95638
2023-03-05T01:41:33.496Z,95635
2023-03-05T01:42:43.183Z,95632
2023-03-05T01:43:52.944Z,95633
2023-03-05T01:45:01.586Z,95635
2023-03-05T01:46:11.282Z,95633
2023-03-05T01:47:20.034Z,95633
2023-03-05T01:48:29.738Z,95628
2023-03-05T01:49:39.411Z,95621
2023-03-05T01:50:49.109Z,95623
2023-03-05T01:51:59.852Z,95625
2023-03-05T01:53:08.523Z,95625
2023-03-05T01:54:17.218Z,95624
2023-03-05T01:55:26.900Z,95624
2023-03-05T01:56:35.606Z,95626
2023-03-05T01:57:44.285Z,95625
2023-03-05T01:58:53.979Z,95627
2023-03-05T02:00:03.661Z,95627
2023-03-05T02:01:13.400Z,95624
2023-03-05T02:02:21.129Z,95624
2023-03-05T02:03:30.038Z,95627
2023-03-05T02:04:39.674Z,95626
2023-03-05T02:05:49.331Z,95625
2023-03-05T02:06:59.072Z,95623
2023-03-05T02:08:09.719Z,95625
2023-03-05T02:09:19.395Z,95613
2023-03-05T02:10:29.069Z,95617
2023-03-05T02:11:36.752Z,95618
2023-03-05T02:12:45.452Z,95615
2023-03-05T02:13:55.197Z,95611
2023-03-05T02:15:03.923Z,95606
2023-03-05T02:16:12.641Z,95608
2023-03-05T02:17:22.341Z,95606
2023-03-05T02:18:31.077Z,95602
2023-03-05T02:19:40.730Z,95607
2023-03-05T02:20:49.487Z,95602
2023-03-05T02:21:59.120Z,95607
2023-03-05T02:23:08.861Z,95602
2023-03-05T02:24:17.610Z,95605
2023-03-05T02:25:26.302Z,95604
2023-03-05T02:26:35.995Z,95604
2023-03-05T02:27:44.663Z,95603
2023-03-05T02:28:54.343Z,95602
2023-03-05T02:30:03.104Z,95607
2023-03-05T02:31:11.718Z,95606
2023-03-05T02:32:21.655Z,95604
2023-03-05T02:33:29.238Z,95602
2023-03-05T02:34:37.922Z,95607
2023-03-05T02:35:47.746Z,95598
2023-03-05T02:36:57.482Z,95599
2023-03-05T02:38:07.262Z,95601
2023-03-05T02:39:16.996Z,95600
2023-03-05T02:40:25.653Z,95594
2023-03-05T02:41:36.373Z,95591
2023-03-05T02:42:43.054Z,95593
2023-03-05T02:43:52.736Z,95592
2023-03-05T02:45:01.435Z,95589
2023-03-05T02:46:10.123Z,95591
2023-03-05T02:47:18.744Z,95582
2023-03-05T02:48:27.545Z,95584
2023-03-05T02:49:37.209Z,95583
2023-03-05T02:50:44.926Z,95586
2023-03-05T02:51:53.593Z,95582
2023-03-05T02:53:03.370Z,95581
2023-03-05T02:54:13.005Z,95583
2023-03-05T02:55:22.662Z,95577
2023-03-05T02:56:31.373Z,95573
2023-03-05T02:57:40.133Z,95570
2023-03-05T02:58:49.814Z,95567
2023-03-05T02:59:59.602Z,95564
2023-03-05T03:01:09.279Z,95561
2023-03-05T03:02:18.941Z,95555
2023-03-05T03:03:26.649Z,95552
2023-03-05T03:04:35.330Z,95556
2023-03-05T03:05:44.009Z,95561
2023-03-05T03:06:52.679Z,95556
2023-03-05T03:08:02.381Z,95558
2023-03-05T03:09:12.071Z,95553
2023-03-05T03:10:21.783Z,95549
2023-03-05T03:11:31.461Z,95551
2023-03-05T03:12:39.193Z,95546
2023-03-05T03:13:47.877Z,95543
2023-03-05T03:14:56.641Z,95541
2023-03-05T03:16:06.303Z,95538
2023-03-05T03:17:16.011Z,95534
2023-03-05T03:18:23.772Z,95533
2023-03-05T03:19:31.429Z,95538
2023-03-05T03:20:41.106Z,95538
2023-03-05T03:21:50.844Z,95536
2023-03-05T03:22:59.556Z,95528
2023-03-05T03:24:09.273Z,95537
2023-03-05T03:25:18.033Z,95539
2023-03-05T03:26:27.654Z,95540
2023-03-05T03:27:36.334Z,95539
2023-03-05T03:28:45.036Z,95542
2023-03-05T03:29:54.783Z,95541
2023-03-05T03:31:02.526Z,95534
2023-03-05T03:32:11.226Z,95540
2023-03-05T03:33:19.963Z,95541
2023-03-05T03:34:28.621Z,95534
2023-03-05T03:35:39.104Z,95541
2023-03-05T03:36:47.669Z,95539
2023-03-05T03:37:56.389Z,95535
2023-03-05T03:39:06.073Z,95537
2023-03-05T03:40:13.808Z,95532
2023-03-05T03:41:22.504Z,95532
2023-03-05T03:42:32.156Z,95528
2023-03-05T03:43:40.843Z,95533
2023-03-05T03:44:50.509Z,95532
2023-03-05T03:45:59.252Z,95535
2023-03-05T03:47:07.910Z,95524
2023-03-05T03:48:17.568Z,95521
2023-03-05T03:49:25.247Z,95519
2023-03-05T03:50:33.933Z,95521
2023-03-05T03:51:43.634Z,95520
2023-03-05T03:52:52.308Z,95525
2023-03-05T03:54:02.072Z,95522
2023-03-05T03:55:10.803Z,95518
2023-03-05T03:56:20.499Z,95519
2023-03-05T03:57:30.194Z,95518
2023-03-05T03:58:39.888Z,95516
2023-03-05T03:59:49.612Z,95513
2023-03-05T04:00:59.299Z,95513
2023-03-05T04:02:13.035Z,95514
2023-03-05T04:06:02.491Z,95516
2023-03-05T04:07:11.146Z,95510
2023-03-05T04:08:19.868Z,95507
2023-03-05T04:09:29.659Z,95507
2023-03-05T04:10:38.382Z,95504
2023-03-05T04:11:47.082Z,95508
2023-03-05T04:12:56.759Z,95508
2023-03-05T04:14:06.439Z,95505
2023-03-05T04:15:16.167Z,95506
2023-03-05T04:16:26.145Z,95502
2023-03-05T04:17:35.779Z,95504
2023-03-05T04:18:45.484Z,95499
2023-03-05T04:19:53.138Z,95499
2023-03-05T04:21:01.844Z,95500
2023-03-05T04:22:11.543Z,95500
2023-03-05T04:23:19.207Z,95499
2023-03-05T04:24:28.915Z,95499
2023-03-05T04:25:37.615Z,95494
2023-03-05T04:26:44.370Z,95488
2023-03-05T04:27:53.018Z,95485
2023-03-05T04:29:01.906Z,95489
2023-03-05T04:30:11.565Z,95493
2023-03-05T04:31:21.485Z,95488
2023-03-05T04:32:29.124Z,95492
2023-03-05T04:33:37.797Z,95488
2023-03-05T04:34:46.506Z,95491
2023-03-05T04:35:55.162Z,95486
2023-03-05T04:37:04.885Z,95480
2023-03-05T04:38:12.644Z,95484
2023-03-05T04:39:21.380Z,95486
2023-03-05T04:40:31.072Z,95484
2023-03-05T04:41:38.821Z,95485
2023-03-05T04:42:48.611Z,95485
2023-03-05T04:43:56.327Z,95487
2023-03-05T04:45:05.037Z,95483
2023-03-05T04:46:14.741Z,95482
2023-03-05T04:47:23.455Z,95481
2023-03-05T04:48:33.115Z,95481
2023-03-05T04:49:40.927Z,95481
2023-03-05T04:50:49.620Z,95480
2023-03-05T04:51:59.447Z,95477
2023-03-05T04:53:09.088Z,95474
2023-03-05T04:54:17.791Z,95476
2023-03-05T04:55:26.496Z,95475
2023-03-05T04:56:35.196Z,95480
2023-03-05T04:57:43.899Z,95467
2023-03-05T04:58:52.572Z,95473
2023-03-05T05:00:02.327Z,95475
2023-03-05T05:01:12.126Z,95471
2023-03-05T05:02:21.823Z,95471
2023-03-05T05:03:31.501Z,95468
2023-03-05T05:04:40.207Z,95468
2023-03-05T05:05:48.933Z,95463
2023-03-05T05:06:58.640Z,95465
2023-03-05T05:08:07.375Z,95465
2023-03-05T05:09:17.018Z,95461
2023-03-05T05:10:26.776Z,95465
2023-03-05T05:11:34.455Z,95460
2023-03-05T05:12:44.168Z,95464
2023-03-05T05:13:53.853Z,95458
2023-03-05T05:15:03.537Z,95459
2023-03-05T05:16:13.275Z,95460
2023-03-05T05:17:20.958Z,95461
2023-03-05T05:18:30.580Z,95461
2023-03-05T05:19:40.379Z,95467
2023-03-05T05:20:48.979Z,95464
2023-03-05T05:21:58.659Z,95463
2023-03-05T05:23:08.333Z,95463
2023-03-05T05:24:16.994Z,95466
2023-03-05T05:25:26.709Z,95462
2023-03-05T05:26:34.366Z,95460
2023-03-05T05:27:43.029Z,95459
2023-03-05T05:28:52.751Z,95461
2023-03-05T05:30:00.503Z,95460
2023-03-05T05:31:10.218Z,95462
2023-03-05T05:32:19.893Z,95461
2023-03-05T05:33:29.570Z,95459
2023-03-05T05:34:39.314Z,95460
2023-03-05T05:35:48.189Z,95463
2023-03-05T05:36:57.828Z,95464
2023-03-05T05:38:07.566Z,95460
2023-03-05T05:39:19.027Z,95465
2023-03-05T05:40:25.959Z,95462
2023-03-05T05:41:34.646Z,95459
2023-03-05T05:42:43.346Z,95463
2023-03-05T05:43:53.020Z,95462
2023-03-05T05:45:00.730Z,95465
2023-03-05T05:46:09.521Z,95462
2023-03-05T05:47:18.074Z,95464
2023-03-05T05:48:25.745Z,95459
2023-03-05T05:49:33.472Z,95464
2023-03-05T05:50:43.144Z,95460
2023-03-05T05:51:51.897Z,95463
2023-03-05T05:53:01.617Z,95460
2023-03-05T05:54:11.289Z,95462
2023-03-05T05:55:19.987Z,95462
2023-03-05T05:56:29.727Z,95464
2023-03-05T05:57:37.431Z,95465
2023-03-05T05:58:46.108Z,95466
2023-03-05T05:59:54.774Z,95467
2023-03-05T06:01:04.442Z,95465
2023-03-05T06:02:13.250Z,95472
2023-03-05T06:03:20.861Z,95471
2023-03-05T06:04:30.563Z,95470
2023-03-05T06:05:40.476Z,95472
2023-03-05T06:06:50.128Z,95474
2023-03-05T06:07:59.861Z,95475
2023-03-05T06:09:09.541Z,95474
2023-03-05T06:10:18.185Z,95469
2023-03-05T06:11:27.927Z,95475
2023-03-05T06:12:36.640Z,95469
2023-03-05T06:13:45.277Z,95474
2023-03-05T06:14:54.964Z,95466
2023-03-05T06:16:02.675Z,95466
2023-03-05T06:17:14.872Z,95471
2023-03-05T06:18:23.034Z,95468
2023-03-05T06:19:31.692Z,95471
2023-03-05T06:20:41.502Z,95470
2023-03-05T06:21:50.270Z,95466
2023-03-05T06:22:58.959Z,95469
2023-03-05T06:24:08.616Z,95471
2023-03-05T06:25:17.299Z,95470
2023-03-05T06:26:24.954Z,95470
2023-03-05T06:27:35.623Z,95470
2023-03-05T06:28:45.294Z,95471
2023-03-05T06:29:54.964Z,95468
2023-03-05T06:31:02.709Z,95468
2023-03-05T06:32:12.340Z,95462
2023-03-05T06:33:22.980Z,95463
2023-03-05T06:34:32.670Z,95469
2023-03-05T06:35:41.501Z,95462
2023-03-05T06:36:50.191Z,95466
2023-03-05T06:37:58.919Z,95459
2023-03-05T06:39:08.635Z,95461
2023-03-05T06:40:16.303Z,95462
2023-03-05T06:41:26.041Z,95456
2023-03-05T06:42:34.722Z,95461
2023-03-05T06:43:44.400Z,95461
2023-03-05T06:44:54.065Z,95463
2023-03-05T06:46:02.946Z,95463
2023-03-05T06:47:12.568Z,95464
2023-03-05T06:48:21.425Z,95469
2023-03-05T06:49:31.074Z,95463
2023-03-05T06:50:40.741Z,95469
2023-03-05T06:51:49.447Z,95463
2023-03-05T06:52:58.226Z,95459
2023-03-05T06:54:07.950Z,95459
2023-03-05T06:55:17.616Z,95460
2023-03-05T06:56:27.324Z,95455
2023-03-05T06:57:37.028Z,95458
2023-03-05T06:58:45.704Z,95453
2023-03-05T06:59:55.344Z,95451
2023-03-05T07:01:04.128Z,95453
2023-03-05T07:02:12.888Z,95452
2023-03-05T07:03:22.645Z,95455
2023-03-05T07:04:31.346Z,95455
2023-03-05T07:05:40.006Z,95451
2023-03-05T07:06:48.692Z,95453
2023-03-05T07:07:57.385Z,95452
2023-03-05T07:09:07.089Z,95455
2023-03-05T07:10:14.781Z,95457
2023-03-05T07:11:24.436Z,95458
2023-03-05T07:12:34.199Z,95463
2023-03-05T07:13:41.840Z,95462
2023-03-05T07:14:50.574Z,95463
2023-03-05T07:15:59.356Z,95458
2023-03-05T07:17:08.040Z,95458
2023-03-05T07:18:17.706Z,95463
2023-03-05T07:19:26.385Z,95456
2023-03-05T07:20:36.168Z,95461
2023-03-05T07:21:45.859Z,95458
2023-03-05T07:22:53.572Z,95454
2023-03-05T07:24:02.225Z,95451
2023-03-05T07:25:10.940Z,95458
2023-03-05T07:26:19.649Z,95453
2023-03-05T07:27:29.290Z,95451
2023-03-05T07:28:36.954Z,95452
2023-03-05T07:29:45.648Z,95445
2023-03-05T07:30:55.349Z,95449
2023-03-05T07:32:03.123Z,95445
2023-03-05T07:33:11.760Z,95444
2023-03-05T07:34:20.513Z,95447
2023-03-05T07:35:30.190Z,95446
2023-03-05T07:36:39.876Z,95445
2023-03-05T07:37:47.686Z,95444
2023-03-05T07:38:56.343Z,95443
2023-03-05T07:40:06.077Z,95448
2023-03-05T07:41:14.753Z,95444
2023-03-05T07:42:24.527Z,95447
2023-03-05T07:43:34.202Z,95449
2023-03-05T07:44:42.906Z,95445
2023-03-05T07:45:52.601Z,95452
2023-03-05T07:47:01.316Z,95447
2023-03-05T07:48:11.052Z,95447
2023-03-05T07:49:20.704Z,95443
2023-03-05T07:50:28.352Z,95443
2023-03-05T07:51:37.172Z,95444
2023-03-05T07:52:46.858Z,95445
2023-03-05T07:53:55.574Z,95448
2023-03-05T07:55:05.258Z,95447
2023-03-05T07:56:12.919Z,95450
2023-03-05T07:57:21.677Z,95448
2023-03-05T07:58:31.355Z,95445
2023-03-05T07:59:41.012Z,95441
2023-03-05T08:00:50.719Z,95437
2023-03-05T08:01:59.608Z,95440
2023-03-05T08:03:09.269Z,95433
2023-03-05T08:04:19.023Z,95430
2023-03-05T08:05:26.681Z,95431
2023-03-05T08:06:36.374Z,95437
2023-03-05T08:07:46.033Z,95435
2023-03-05T08:08:55.746Z,95431
2023-03-05T08:10:05.451Z,95436
2023-03-05T08:11:14.168Z,95433
2023-03-05T08:12:22.881Z,95435
2023-03-05T08:13:32.560Z,95437
2023-03-05T08:14:41.243Z,95434
2023-03-05T08:15:51.065Z,95433
2023-03-05T08:17:00.736Z,95427
2023-03-05T08:18:10.482Z,95431
2023-03-05T08:19:18.129Z,95432
2023-03-05T08:20:26.850Z,95435
2023-03-05T08:21:35.480Z,95430
2023-03-05T08:22:45.213Z,95433
2023-03-05T08:23:52.903Z,95431
2023-03-05T08:25:02.574Z,95434
2023-03-05T08:26:12.292Z,95435
2023-03-05T08:27:20.019Z,95433
2023-03-05T08:28:29.693Z,95430
2023-03-05T08:29:38.355Z,95424
2023-03-05T08:30:47.138Z,95428
2023-03-05T08:31:56.844Z,95427
2023-03-05T08:33:04.537Z,95433
2023-03-05T08:34:13.230Z,95423
2023-03-05T08:35:23.180Z,95424
2023-03-05T08:36:30.692Z,95425
2023-03-05T08:37:39.400Z,95426
2023-03-05T08:38:48.153Z,95421
2023-03-05T08:39:57.879Z,95422
2023-03-05T08:41:06.559Z,95420
2023-03-05T08:42:16.247Z,95422
2023-03-05T08:43:25.934Z,95423
2023-03-05T08:44:33.617Z,95422
2023-03-05T08:45:43.292Z,95417
2023-03-05T08:46:53.158Z,95417
2023-03-05T08:48:02.781Z,95423
2023-03-05T08:49:12.480Z,95421
2023-03-05T08:50:22.191Z,95420
2023-03-05T08:51:30.903Z,95421
2023-03-05T08:52:40.613Z,95422
2023-03-05T08:53:50.393Z,95418
2023-03-05T08:55:00.017Z,95419
2023-03-05T08:56:09.671Z,95415
2023-03-05T08:57:18.374Z,95410
2023-03-05T08:58:27.027Z,95418
2023-03-05T08:59:34.701Z,95414
2023-03-05T09:00:43.457Z,95416
2023-03-05T09:01:53.154Z,95412
2023-03-05T09:03:00.979Z,95412
2023-03-05T09:04:09.601Z,95410
2023-03-05T09:05:19.531Z,95406
2023-03-05T09:06:28.151Z,95408
2023-03-05T09:07:38.000Z,95398
2023-03-05T09:08:46.765Z,95393
2023-03-05T09:09:55.440Z,95388
2023-03-05T09:11:05.143Z,95392
2023-03-05T09:12:12.854Z,95397
2023-03-05T09:13:21.637Z,95396
2023-03-05T09:14:31.292Z,95401
2023-03-05T09:15:39.962Z,95403
2023-03-05T09:16:48.659Z,95398
2023-03-05T09:17:58.345Z,95397
2023-03-05T09:19:07.025Z,95393
2023-03-05T09:20:16.741Z,95399
2023-03-05T09:21:24.430Z,95395
2023-03-05T09:22:34.100Z,95393
2023-03-05T09:23:43.765Z,95394
2023-03-05T09:24:53.511Z,95393
2023-03-05T09:26:02.214Z,95384
2023-03-05T09:27:11.890Z,95384
2023-03-05T09:28:21.666Z,95386
2023-03-05T09:29:31.373Z,95383
2023-03-05T09:30:40.117Z,95384
2023-03-05T09:31:48.927Z,95386
2023-03-05T09:32:58.618Z,95385
2023-03-05T09:34:07.299Z,95380
2023-03-05T09:35:16.013Z,95381
2023-03-05T09:36:25.656Z,95381
2023-03-05T09:37:35.358Z,95386
2023-03-05T09:38:45.037Z,95382
2023-03-05T09:39:53.774Z,95388
2023-03-05T09:41:02.507Z,95386
2023-03-05T09:42:12.184Z,95387
2023-03-05T09:43:20.931Z,95384
2023-03-05T09:44:30.629Z,95383
2023-03-05T09:45:47.500Z,95384
2023-03-05T09:46:55.162Z,95383
2023-03-05T09:48:03.874Z,95387
2023-03-05T09:49:13.584Z,95386
2023-03-05T09:50:21.329Z,95386
2023-03-05T09:51:30.984Z,95382
2023-03-05T09:52:40.720Z,95386
2023-03-05T09:53:49.441Z,95389
2023-03-05T09:54:58.154Z,95383
2023-03-05T09:56:06.858Z,95382
2023-03-05T09:57:15.599Z,95379
2023-03-05T09:58:25.277Z,95381
2023-03-05T09:59:32.935Z,95381
2023-03-05T10:00:42.628Z,95377
2023-03-05T10:01:52.304Z,95377
2023-03-05T10:03:01.049Z,95370
2023-03-05T10:04:11.117Z,95376
2023-03-05T10:05:22.098Z,95372
2023-03-05T10:06:29.777Z,95366
2023-03-05T10:07:39.430Z,95369
2023-03-05T10:08:48.117Z,95366
2023-03-05T10:09:56.763Z,95372
2023-03-05T10:11:06.476Z,95370
2023-03-05T10:12:15.131Z,95373
2023-03-05T10:13:24.936Z,95368
2023-03-05T10:14:33.606Z,95364
2023-03-05T10:15:43.261Z,95365
2023-03-05T10:16:53.006Z,95366
2023-03-05T10:18:01.644Z,95364
2023-03-05T10:19:11.330Z,95359
2023-03-05T10:20:20.124Z,95359
2023-03-05T10:21:28.760Z,95358
2023-03-05T10:22:38.466Z,95356
2023-03-05T10:23:48.134Z,95351
2023-03-05T10:24:57.801Z,95348
2023-03-05T10:26:06.472Z,95353
2023-03-05T10:27:15.156Z,95356
2023-03-05T10:28:24.011Z,95354
2023-03-05T10:29:33.666Z,95354
2023-03-05T10:30:43.315Z,95355
2023-03-05T10:31:53.076Z,95350
2023-03-05T10:33:00.725Z,95350
2023-03-05T10:34:09.407Z,95350
2023-03-05T10:35:19.103Z,95348
2023-03-05T10:36:27.758Z,95349
2023-03-05T10:37:37.406Z,95351
2023-03-05T10:38:46.113Z,95346
2023-03-05T10:39:54.757Z,95344
2023-03-05T10:41:03.455Z,95345
2023-03-05T10:42:13.120Z,95348
2023-03-05T10:43:22.779Z,95343
2023-03-05T10:44:30.475Z,95341
2023-03-05T10:45:38.151Z,95341
2023-03-05T10:46:48.833Z,95340
2023-03-05T10:47:58.471Z,95335
2023-03-05T10:49:07.153Z,95329
2023-03-05T10:50:15.828Z,95331
2023-03-05T10:51:24.508Z,95331
2023-03-05T10:52:34.163Z,95330
2023-03-05T10:53:43.834Z,95325
2023-03-05T10:54:52.545Z,95321
2023-03-05T10:56:02.254Z,95319
2023-03-05T10:57:11.864Z,95322
2023-03-05T10:58:23.694Z,95316
2023-03-05T10:59:31.208Z,95314
2023-03-05T11:00:40.881Z,95313
2023-03-05T11:01:50.568Z,95309
2023-03-05T11:03:00.229Z,95320
2023-03-05T11:04:08.924Z,95311
2023-03-05T11:05:17.599Z,95314
2023-03-05T11:06:25.277Z,95316
2023-03-05T11:07:34.988Z,95321
2023-03-05T11:08:44.691Z,95314
2023-03-05T11:09:53.436Z,95305
2023-03-05T11:11:03.838Z,95304
2023-03-05T11:12:11.724Z,95305
2023-03-05T11:13:21.422Z,95305
2023-03-05T11:14:31.139Z,95306
2023-03-05T11:15:38.773Z,95302
2023-03-05T11:16:47.435Z,95306
2023-03-05T11:17:57.090Z,95301
2023-03-05T11:19:04.742Z,95302
2023-03-05T11:20:14.441Z,95300
2023-03-05T11:21:22.129Z,95298
2023-03-05T11:22:31.789Z,95301
2023-03-05T11:23:41.485Z,95296
2023-03-05T11:24:49.201Z,95293
2023-03-05T11:25:57.851Z,95293
2023-03-05T11:27:07.553Z,95290
2023-03-05T11:28:27.449Z,95292
2023-03-05T11:29:27.850Z,95287
2023-03-05T11:30:35.766Z,95288
2023-03-05T11:31:44.260Z,95290
2023-03-05T11:32:53.959Z,95288
2023-03-05T11:34:02.619Z,95284
2023-03-05T11:35:11.478Z,95284
2023-03-05T11:36:20.125Z,95282
2023-03-05T11:37:29.796Z,95283
2023-03-05T11:38:39.512Z,95279
2023-03-05T11:39:47.211Z,95280
2023-03-05T11:40:55.879Z,95284
2023-03-05T11:42:05.541Z,95274
2023-03-05T11:43:14.262Z,95278
2023-03-05T11:44:22.944Z,95271
2023-03-05T11:45:31.599Z,95269
2023-03-05T11:46:40.338Z,95270
2023-03-05T11:47:49.939Z,95269
2023-03-05T11:48:58.624Z,95273
2023-03-05T11:50:07.340Z,95271
2023-03-05T11:51:16.995Z,95266
2023-03-05T11:52:26.678Z,95269
2023-03-05T11:53:35.323Z,95265
2023-03-05T11:54:44.000Z,95263
2023-03-05T11:55:53.725Z,95263
2023-03-05T11:57:03.481Z,95258
2023-03-05T11:58:10.114Z,95265
2023-03-05T11:59:18.819Z,95264
2023-03-05T12:00:28.533Z,95262
2023-03-05T12:01:37.165Z,95264
2023-03-05T12:02:45.899Z,95262
2023-03-05T12:03:55.582Z,95262
2023-03-05T12:05:05.229Z,95258
2023-03-05T12:06:13.919Z,95256
2023-03-05T12:07:22.593Z,95254
2023-03-05T12:08:31.254Z,95245
2023-03-05T12:09:41.136Z,95245
2023-03-05T12:10:48.680Z,95240
2023-03-05T12:11:57.357Z,95241
2023-03-05T12:13:06.033Z,95236
2023-03-05T12:14:14.742Z,95234
2023-03-05T12:15:23.450Z,95236
2023-03-05T12:16:33.203Z,95234
2023-03-05T12:17:43.200Z,95226
2023-03-05T12:18:52.432Z,95227
2023-03-05T12:20:00.192Z,95225
2023-03-05T12:21:09.033Z,95218
2023-03-05T12:22:18.735Z,95220
2023-03-05T12:23:27.466Z,95214
2023-03-05T12:24:37.189Z,95217
2023-03-05T12:25:45.305Z,95213
2023-03-05T12:26:54.607Z,95219
2023-03-05T12:28:04.305Z,95217
2023-03-05T12:29:11.988Z,95211
2023-03-05T12:30:20.808Z,95206
2023-03-05T12:31:30.477Z,95209
2023-03-05T12:32:40.164Z,95210
2023-03-05T12:33:49.794Z,95210
2023-03-05T12:34:58.485Z,95209
2023-03-05T12:36:08.257Z,95207
2023-03-05T12:37:15.902Z,95210
2023-03-05T12:38:26.939Z,95214
2023-03-05T12:39:35.223Z,95209
2023-03-05T12:40:43.961Z,95207
2023-03-05T12:41:52.679Z,95201
2023-03-05T12:43:01.381Z,95197
2023-03-05T12:44:10.089Z,95194
2023-03-05T12:45:19.777Z,95193
2023-03-05T12:46:28.498Z,95191
2023-03-05T12:47:40.260Z,95195
2023-03-05T12:48:46.850Z,95192
2023-03-05T12:49:54.651Z,95191
2023-03-05T12:51:04.352Z,95187
2023-03-05T12:52:13.107Z,95188
2023-03-05T12:53:22.830Z,95189
2023-03-05T12:54:30.556Z,95188
2023-03-05T12:55:38.237Z,95191
2023-03-05T12:56:47.077Z,95187
2023-03-05T12:57:56.758Z,95178
2023-03-05T12:59:04.462Z,95186
2023-03-05T13:00:13.138Z,95181
2023-03-05T13:01:22.841Z,95176
2023-03-05T13:02:32.518Z,95175
2023-03-05T13:03:42.281Z,95172
2023-03-05T13:04:51.902Z,95172
2023-03-05T13:06:00.562Z,95176
2023-03-05T13:07:10.365Z,95172
2023-03-05T13:08:18.108Z,95170
2023-03-05T13:09:27.919Z,95171
2023-03-05T13:10:36.638Z,95173
2023-03-05T13:11:45.409Z,95171
2023-03-05T13:12:55.039Z,95168
2023-03-05T13:14:02.711Z,95168
2023-03-05T13:15:11.376Z,95171
2023-03-05T13:16:21.182Z,95171
2023-03-05T13:17:29.810Z,95167
2023-03-05T13:18:39.477Z,95166
2023-03-05T13:19:48.166Z,95160
2023-03-05T13:20:57.831Z,95162
2023-03-05T13:22:07.552Z,95165
2023-03-05T13:23:16.225Z,95164
2023-03-05T13:24:25.898Z,95161
2023-03-05T13:25:34.598Z,95161
2023-03-05T13:26:43.321Z,95161
2023-03-05T13:27:51.994Z,95157
2023-03-05T13:29:01.699Z,95156
2023-03-05T13:30:10.390Z,95153
2023-03-05T13:31:20.174Z,95158
2023-03-05T13:32:28.789Z,95157
2023-03-05T13:33:37.477Z,95160
2023-03-05T13:34:48.096Z,95156
2023-03-05T13:35:55.983Z,95155
2023-03-05T13:37:05.662Z,95158
2023-03-05T13:38:15.836Z,95154
2023-03-05T13:39:24.007Z,95158
2023-03-05T13:40:32.764Z,95154
2023-03-05T13:41:41.443Z,95162
2023-03-05T13:42:51.111Z,95158
2023-03-05T13:44:00.784Z,95155
2023-03-05T13:45:10.480Z,95148
2023-03-05T13:46:19.243Z,95152
2023-03-05T13:47:28.011Z,95152
2023-03-05T13:48:36.721Z,95152
2023-03-05T13:49:47.428Z,95149
2023-03-05T13:50:57.130Z,95144
2023-03-05T13:52:05.890Z,95144
2023-03-05T13:53:15.781Z,95147
2023-03-05T13:54:23.271Z,95145
2023-03-05T13:55:32.985Z,95141
2023-03-05T13:56:41.758Z,95139
2023-03-05T13:57:50.465Z,95141
2023-03-05T13:59:01.106Z,95139
2023-03-05T14:00:08.758Z,95135
2023-03-05T14:01:18.505Z,95132
2023-03-05T14:02:28.134Z,95136
2023-03-05T14:03:37.868Z,95133
2023-03-05T14:04:47.604Z,95127
2023-03-05T14:05:55.222Z,95124
2023-03-05T14:07:04.901Z,95128
2023-03-05T14:08:14.710Z,95125
2023-03-05T14:09:24.255Z,95127
2023-03-05T14:10:32.968Z,95125
2023-03-05T14:11:42.741Z,95122
2023-03-05T14:12:50.439Z,95118
2023-03-05T14:13:59.113Z,95127
2023-03-05T14:15:06.792Z,95127
2023-03-05T14:16:16.852Z,95120
2023-03-05T14:17:26.240Z,95126
2023-03-05T14:18:33.978Z,95122
2023-03-05T14:19:42.708Z,95124
2023-03-05T14:20:52.433Z,95125
2023-03-05T14:22:02.149Z,95120
2023-03-05T14:23:18.532Z,95120
2023-03-05T14:24:22.650Z,95116
2023-03-05T14:25:32.322Z,95113
2023-03-05T14:26:42.025Z,95106
2023-03-05T14:27:49.697Z,95111
2023-03-05T14:28:59.399Z,95106
2023-03-05T14:30:09.094Z,95107
2023-03-05T14:31:18.827Z,95101
2023-03-05T14:32:28.608Z,95103
2023-03-05T14:33:37.192Z,95104
2023-03-05T14:34:43.901Z,95097
2023-03-05T14:35:53.638Z,95103
2023-03-05T14:37:03.325Z,95102
2023-03-05T14:38:13.041Z,95091
2023-03-05T14:39:22.726Z,95096
2023-03-05T14:40:32.427Z,95096
2023-03-05T14:41:42.072Z,95096
2023-03-05T14:42:49.750Z,95094
2023-03-05T14:43:58.481Z,95088
2023-03-05T14:45:07.164Z,95091
2023-03-05T14:46:16.897Z,95085
2023-03-05T14:47:26.525Z,95090
2023-03-05T14:48:36.252Z,95088
2023-03-05T14:49:44.939Z,95087
2023-03-05T14:50:55.795Z,95088
2023-03-05T14:52:03.319Z,95087